createdAt,value
2022-10-17T00:00:49.639Z,99.90
2022-10-17T00:03:16.715Z,99.90
2022-10-17T00:05:45.521Z,99.90
2022-10-17T00:08:13.184Z,99.90
2022-10-17T00:10:40.947Z,99.90
2022-10-17T00:13:08.293Z,99.90
2022-10-17T00:15:35.818Z,99.90
2022-10-17T00:18:03.203Z,99.90
2022-10-17T00:20:34.899Z,99.90
2022-10-17T00:23:02.331Z,99.90
2022-10-17T00:25:29.084Z,99.90
2022-10-17T00:27:56.236Z,99.90
2022-10-17T00:30:23.787Z,99.90
2022-10-17T00:32:51.237Z,99.90
2022-10-17T00:35:18.414Z,99.90
2022-10-17T00:37:45.412Z,99.90
2022-10-17T00:40:12.602Z,99.90
2022-10-17T00:42:39.450Z,99.90
2022-10-17T00:45:15.385Z,99.90
2022-10-17T00:47:44.408Z,99.90
2022-10-17T00:50:11.919Z,99.90
2022-10-17T00:52:39.736Z,99.90
2022-10-17T00:55:10.802Z,99.90
2022-10-17T00:57:39.249Z,99.90
2022-10-17T01:00:08.758Z,99.90
2022-10-17T01:02:36.310Z,99.90
2022-10-17T01:05:04.245Z,99.90
2022-10-17T01:07:34.693Z,99.90
2022-10-17T01:10:05.850Z,99.90
2022-10-17T01:12:36.963Z,99.90
2022-10-17T01:15:04.073Z,99.90
2022-10-17T01:17:43.825Z,99.90
2022-10-17T01:20:11.048Z,99.90
2022-10-17T01:22:37.801Z,99.90
2022-10-17T01:25:17.846Z,99.90
2022-10-17T01:28:03.651Z,99.90
2022-10-17T01:30:43.726Z,99.90
2022-10-17T01:33:12.474Z,99.90
2022-10-17T01:35:42.059Z,99.90
2022-10-17T01:38:09.562Z,99.90
2022-10-17T01:40:39.507Z,99.90
2022-10-17T01:43:13.395Z,99.90
2022-10-17T01:45:48.867Z,99.90
2022-10-17T01:48:19.240Z,99.90
2022-10-17T01:50:50.800Z,99.90
2022-10-17T01:53:33.624Z,99.90
2022-10-17T01:56:01.119Z,99.90
2022-10-17T01:58:31.406Z,99.90
2022-10-17T02:01:01.494Z,99.90
2022-10-17T02:03:32.360Z,99.90
2022-10-17T02:05:59.819Z,99.90
2022-10-17T02:08:29.292Z,99.90
2022-10-17T02:11:00.484Z,99.90
2022-10-17T02:13:51.760Z,99.90
2022-10-17T02:16:21.873Z,99.90
2022-10-17T02:18:54.924Z,99.90
2022-10-17T02:21:31.889Z,99.90
2022-10-17T02:24:19.823Z,99.90
2022-10-17T02:26:53.108Z,99.90
2022-10-17T02:29:22.423Z,99.90
2022-10-17T02:31:54.429Z,99.90
2022-10-17T02:34:36.600Z,99.90
2022-10-17T02:37:06.590Z,99.90
2022-10-17T02:39:35.417Z,99.90
2022-10-17T02:42:03.891Z,99.90
2022-10-17T02:44:33.717Z,99.90
2022-10-17T02:47:07.189Z,99.90
2022-10-17T02:49:38.413Z,99.90
2022-10-17T02:52:14.404Z,99.90
2022-10-17T02:54:45.107Z,99.90
2022-10-17T02:57:12.253Z,99.90
2022-10-17T02:59:41.426Z,99.90
2022-10-17T03:02:09.172Z,99.90
2022-10-17T03:04:35.960Z,99.90
2022-10-17T03:07:03.358Z,99.90
2022-10-17T03:09:30.085Z,99.90
2022-10-17T03:11:57.850Z,99.90
2022-10-17T03:14:24.695Z,99.90
2022-10-17T03:16:52.250Z,99.90
2022-10-17T03:19:19.559Z,99.90
2022-10-17T03:21:47.910Z,99.90
2022-10-17T03:24:15.087Z,99.90
2022-10-17T03:26:42.166Z,99.90
2022-10-17T03:29:09.827Z,99.90
2022-10-17T03:31:37.016Z,99.90
2022-10-17T03:34:05.751Z,99.90
2022-10-17T03:36:33.359Z,99.90
2022-10-17T03:39:01.564Z,99.90
2022-10-17T03:41:29.166Z,99.90
2022-10-17T03:43:56.935Z,99.90
2022-10-17T03:46:24.329Z,99.90
2022-10-17T03:48:52.495Z,99.90
2022-10-17T03:51:21.228Z,99.90
2022-10-17T03:53:52.368Z,99.90
2022-10-17T03:56:23.952Z,99.90
2022-10-17T03:58:57.096Z,99.90
2022-10-17T04:01:24.453Z,99.90
2022-10-17T04:03:52.191Z,99.90
2022-10-17T04:06:19.771Z,99.90
2022-10-17T04:08:47.321Z,99.90
2022-10-17T04:11:19.613Z,99.90
2022-10-17T04:13:48.924Z,99.90
2022-10-17T04:16:16.875Z,99.90
2022-10-17T04:18:55.295Z,99.90
2022-10-17T04:21:25.511Z,99.90
2022-10-17T04:23:56.084Z,99.90
2022-10-17T04:29:31.164Z,99.90
2022-10-17T04:32:05.799Z,99.90
2022-10-17T04:34:53.550Z,99.90
2022-10-17T04:37:22.453Z,99.90
2022-10-17T04:39:51.726Z,99.90
2022-10-17T04:42:18.947Z,99.90
2022-10-17T04:44:46.364Z,99.90
2022-10-17T04:47:16.474Z,99.90
2022-10-17T04:49:43.885Z,99.90
2022-10-17T04:52:11.856Z,99.90
2022-10-17T04:54:46.190Z,99.90
2022-10-17T04:57:14.714Z,99.90
2022-10-17T04:59:47.600Z,99.90
2022-10-17T05:02:37.665Z,99.90
2022-10-17T05:05:05.458Z,99.90
2022-10-17T05:07:33.332Z,99.90
2022-10-17T05:10:03.466Z,99.90
2022-10-17T05:12:32.679Z,99.90
2022-10-17T05:14:59.589Z,99.90
2022-10-17T05:17:28.321Z,99.90
2022-10-17T05:19:55.496Z,99.90
2022-10-17T05:22:22.781Z,99.90
2022-10-17T05:24:50.551Z,99.90
2022-10-17T05:27:17.768Z,99.90
2022-10-17T05:29:46.217Z,99.90
2022-10-17T05:32:19.965Z,99.90
2022-10-17T05:34:48.253Z,99.90
2022-10-17T05:37:15.641Z,99.90
2022-10-17T05:39:50.685Z,99.90
2022-10-17T05:42:20.526Z,99.90
2022-10-17T05:44:48.418Z,99.90
2022-10-17T05:47:18.134Z,99.90
2022-10-17T05:49:51.259Z,99.90
2022-10-17T05:52:23.184Z,99.90
2022-10-17T05:55:19.533Z,99.90
2022-10-17T05:57:46.904Z,99.90
2022-10-17T06:00:17.961Z,99.90
2022-10-17T06:03:00.269Z,99.90
2022-10-17T06:05:27.950Z,99.90
2022-10-17T06:07:58.310Z,99.90
2022-10-17T06:10:30.212Z,99.90
2022-10-17T06:12:57.569Z,99.90
2022-10-17T06:15:32.025Z,99.90
2022-10-17T06:18:03.431Z,99.90
2022-10-17T06:20:31.355Z,99.90
2022-10-17T06:22:58.969Z,99.90
2022-10-17T06:25:47.189Z,99.90
2022-10-17T06:28:14.844Z,99.90
2022-10-17T06:30:42.269Z,99.90
2022-10-17T06:33:09.231Z,99.90
2022-10-17T06:35:36.957Z,99.90
2022-10-17T06:38:04.906Z,99.90
2022-10-17T06:40:34.670Z,99.90
2022-10-17T06:43:01.562Z,99.90
2022-10-17T06:48:33.104Z,99.90
2022-10-17T06:51:35.456Z,99.90
2022-10-17T06:54:02.713Z,99.90
2022-10-17T06:56:47.779Z,99.90
2022-10-17T06:59:40.738Z,99.90
2022-10-17T07:02:12.135Z,99.90
2022-10-17T07:04:39.202Z,99.90
2022-10-17T07:07:06.964Z,99.90
2022-10-17T07:09:34.698Z,99.90
2022-10-17T07:12:03.253Z,99.90
2022-10-17T07:14:36.535Z,99.90
2022-10-17T07:17:04.501Z,99.90
2022-10-17T07:19:32.726Z,99.90
2022-10-17T07:22:00.390Z,99.90
2022-10-17T07:24:27.715Z,99.90
2022-10-17T07:27:02.323Z,99.90
2022-10-17T07:29:29.688Z,99.90
2022-10-17T07:32:04.048Z,99.90
2022-10-17T07:34:32.993Z,99.90
2022-10-17T07:36:59.766Z,99.90
2022-10-17T07:39:26.687Z,99.90
2022-10-17T07:41:54.159Z,99.90
2022-10-17T07:44:22.306Z,99.90
2022-10-17T07:46:52.447Z,99.90
2022-10-17T07:49:19.392Z,99.90
2022-10-17T07:54:14.851Z,99.90
2022-10-17T07:56:41.610Z,99.90
2022-10-17T07:59:09.534Z,99.90
2022-10-17T08:01:37.107Z,99.90
2022-10-17T08:04:04.334Z,99.90
2022-10-17T08:06:31.126Z,99.90
2022-10-17T08:08:59.297Z,99.90
2022-10-17T08:11:26.522Z,99.90
2022-10-17T08:13:53.270Z,99.90
2022-10-17T08:16:20.716Z,99.90
2022-10-17T08:18:47.499Z,99.90
2022-10-17T08:21:14.286Z,99.90
2022-10-17T08:23:42.277Z,99.90
2022-10-17T08:26:10.986Z,99.90
2022-10-17T08:28:39.433Z,99.90
2022-10-17T08:31:10.409Z,99.90
2022-10-17T08:33:38.024Z,99.90
2022-10-17T08:36:05.902Z,99.90
2022-10-17T08:38:35.534Z,99.90
2022-10-17T08:41:04.730Z,99.90
2022-10-17T08:43:37.723Z,99.90
2022-10-17T08:46:06.582Z,99.90
2022-10-17T08:48:37.031Z,99.90
2022-10-17T08:51:12.123Z,99.90
2022-10-17T08:53:39.012Z,99.90
2022-10-17T08:56:19.529Z,99.90
2022-10-17T08:58:52.066Z,99.90
2022-10-17T09:01:31.804Z,99.90
2022-10-17T09:04:01.661Z,99.90
2022-10-17T09:06:37.708Z,99.90
2022-10-17T09:09:23.394Z,99.90
2022-10-17T09:11:50.207Z,99.90
2022-10-17T09:14:35.808Z,99.90
2022-10-17T09:17:17.990Z,99.90
2022-10-17T09:19:59.400Z,99.90
2022-10-17T09:22:28.862Z,99.90
2022-10-17T09:24:57.225Z,99.90
2022-10-17T09:27:26.776Z,99.90
2022-10-17T09:30:17.198Z,99.90
2022-10-17T09:32:59.727Z,99.90
2022-10-17T09:35:28.446Z,99.90
2022-10-17T09:37:55.614Z,99.90
2022-10-17T09:40:27.943Z,99.90
2022-10-17T09:43:00.617Z,99.90
2022-10-17T09:45:31.476Z,99.90
2022-10-17T09:48:09.623Z,99.90
2022-10-17T09:50:36.724Z,99.90
2022-10-17T09:53:11.182Z,99.90
2022-10-17T09:55:47.938Z,99.90
2022-10-17T09:58:15.900Z,99.90
2022-10-17T10:00:44.405Z,99.90
2022-10-17T10:03:24.124Z,99.90
2022-10-17T10:06:05.415Z,99.90
2022-10-17T10:08:51.694Z,99.90
2022-10-17T10:11:19.915Z,99.90
2022-10-17T10:13:48.679Z,99.90
2022-10-17T10:16:36.261Z,99.90
2022-10-17T10:19:20.222Z,99.90
2022-10-17T10:21:54.944Z,99.90
2022-10-17T10:24:25.875Z,99.90
2022-10-17T10:26:58.301Z,99.90
2022-10-17T10:29:34.959Z,99.90
2022-10-17T10:32:16.506Z,99.90
2022-10-17T10:34:49.875Z,99.80
2022-10-17T10:37:19.419Z,99.90
2022-10-17T10:39:47.590Z,98.20
2022-10-17T10:42:20.096Z,99.90
2022-10-17T10:44:48.314Z,99.90
2022-10-17T10:47:23.713Z,99.90
2022-10-17T10:49:52.283Z,99.90
2022-10-17T10:52:23.440Z,99.90
2022-10-17T10:54:55.516Z,98.90
2022-10-17T10:57:25.645Z,98.10
2022-10-17T11:00:04.807Z,97.20
2022-10-17T11:02:40.608Z,97.90
2022-10-17T11:05:19.245Z,96.50
2022-10-17T11:07:49.565Z,96.50
2022-10-17T11:10:32.174Z,97.30
2022-10-17T11:13:04.231Z,96.70
2022-10-17T11:15:47.106Z,96.70
2022-10-17T11:18:38.024Z,96.20
2022-10-17T11:21:10.975Z,96.80
2022-10-17T11:23:43.733Z,96.30
2022-10-17T11:26:18.110Z,95.70
2022-10-17T11:28:44.946Z,96.40
2022-10-17T11:31:16.272Z,96.30
2022-10-17T11:33:53.477Z,96.90
2022-10-17T11:36:23.610Z,96.60
2022-10-17T11:38:50.743Z,95.60
2022-10-17T11:41:20.933Z,96.70
2022-10-17T11:43:57.490Z,96.70
2022-10-17T11:46:26.421Z,95.80
2022-10-17T11:49:06.545Z,96.90
2022-10-17T11:54:30.856Z,96.50
2022-10-17T11:57:14.081Z,97.50
2022-10-17T11:59:44.716Z,97.40
2022-10-17T12:02:27.220Z,97.20
2022-10-17T12:05:18.737Z,97.00
2022-10-17T12:07:49.054Z,97.50
2022-10-17T12:10:35.319Z,97.60
2022-10-17T12:13:21.159Z,97.20
2022-10-17T12:15:47.941Z,97.70
2022-10-17T12:18:17.121Z,97.50
2022-10-17T12:20:55.894Z,97.40
2022-10-17T12:23:27.693Z,97.40
2022-10-17T12:25:59.691Z,97.60
2022-10-17T12:28:42.330Z,98.00
2022-10-17T12:31:13.463Z,98.10
2022-10-17T12:33:40.225Z,98.00
2022-10-17T12:36:23.583Z,97.90
2022-10-17T12:38:52.045Z,97.60
2022-10-17T12:41:38.064Z,98.20
2022-10-17T12:44:14.049Z,98.30
2022-10-17T12:46:47.560Z,97.90
2022-10-17T12:49:20.882Z,98.10
2022-10-17T12:52:11.452Z,98.40
2022-10-17T12:54:47.976Z,98.30
2022-10-17T12:57:57.182Z,97.90
2022-10-17T13:00:29.480Z,97.80
2022-10-17T13:03:01.644Z,98.10
2022-10-17T13:05:30.564Z,98.20
2022-10-17T13:07:59.981Z,97.00
2022-10-17T13:10:29.025Z,98.90
2022-10-17T13:13:03.929Z,98.20
2022-10-17T13:15:30.768Z,98.40
2022-10-17T13:17:59.958Z,98.30
2022-10-17T13:20:31.328Z,98.60
2022-10-17T13:23:22.972Z,98.70
2022-10-17T13:26:01.965Z,98.30
2022-10-17T13:28:29.493Z,98.30
2022-10-17T13:30:57.184Z,98.60
2022-10-17T13:33:29.465Z,98.40
2022-10-17T13:36:01.084Z,99.30
2022-10-17T13:38:30.017Z,98.60
2022-10-17T13:41:06.111Z,99.70
2022-10-17T13:43:38.841Z,99.20
2022-10-17T13:46:25.602Z,98.70
2022-10-17T13:48:53.456Z,99.30
2022-10-17T13:51:20.781Z,99.90
2022-10-17T13:53:47.595Z,99.80
2022-10-17T13:56:28.778Z,99.90
2022-10-17T13:58:57.419Z,99.90
2022-10-17T14:01:25.423Z,99.90
2022-10-17T14:04:07.172Z,99.90
2022-10-17T14:06:43.947Z,99.90
2022-10-17T14:09:18.593Z,99.90
2022-10-17T14:11:56.046Z,99.90
2022-10-17T14:14:24.072Z,99.90
2022-10-17T14:16:51.124Z,99.90
2022-10-17T14:19:24.852Z,99.90
2022-10-17T14:21:59.954Z,99.90
2022-10-17T14:24:28.566Z,99.90
2022-10-17T14:26:58.929Z,99.90
2022-10-17T14:29:28.944Z,99.90
2022-10-17T14:32:00.415Z,99.90
2022-10-17T14:34:31.650Z,99.90
2022-10-17T14:36:58.779Z,99.90
2022-10-17T14:39:26.327Z,99.90
2022-10-17T14:41:53.257Z,99.90
2022-10-17T14:44:22.971Z,99.90
2022-10-17T14:46:53.191Z,99.90
2022-10-17T14:49:24.820Z,99.90
2022-10-17T14:52:13.694Z,99.90
2022-10-17T14:54:46.335Z,99.90
2022-10-17T14:57:19.478Z,99.90
2022-10-17T14:59:55.182Z,99.90
2022-10-17T15:02:24.016Z,99.90
2022-10-17T15:04:51.092Z,99.90
2022-10-17T15:07:18.631Z,99.90
2022-10-17T15:09:47.315Z,99.90
2022-10-17T15:12:15.886Z,99.90
2022-10-17T15:14:43.366Z,99.90
2022-10-17T15:17:15.353Z,99.90
2022-10-17T15:19:42.477Z,99.90
2022-10-17T15:22:09.555Z,99.90
2022-10-17T15:24:36.410Z,99.90
2022-10-17T15:27:03.574Z,99.90
2022-10-17T15:29:30.340Z,99.90
2022-10-17T15:31:57.401Z,99.90
2022-10-17T15:34:24.632Z,99.90
2022-10-17T15:36:51.870Z,99.90
2022-10-17T15:39:19.065Z,99.90
2022-10-17T15:41:48.512Z,99.90
2022-10-17T15:44:15.371Z,99.90
2022-10-17T15:46:42.935Z,99.90
2022-10-17T15:49:13.884Z,99.90
2022-10-17T15:51:40.982Z,99.90
2022-10-17T15:54:07.787Z,99.90
2022-10-17T15:56:40.143Z,99.90
2022-10-17T15:59:10.729Z,99.90
2022-10-17T16:01:38.597Z,99.90
2022-10-17T16:04:05.737Z,99.90
2022-10-17T16:06:32.491Z,99.90
2022-10-17T16:09:00.548Z,99.90
2022-10-17T16:11:35.666Z,99.90
2022-10-17T16:14:04.060Z,99.90
2022-10-17T16:16:31.138Z,99.90
2022-10-17T16:18:58.021Z,99.90
2022-10-17T16:21:26.676Z,99.90
2022-10-17T16:23:54.423Z,99.90
2022-10-17T16:26:21.221Z,99.90
2022-10-17T16:28:48.024Z,99.90
2022-10-17T16:31:19.789Z,99.90
2022-10-17T16:33:46.928Z,99.90
2022-10-17T16:36:13.765Z,99.90
2022-10-17T16:38:40.544Z,99.90
2022-10-17T16:41:17.068Z,99.90
2022-10-17T16:43:44.127Z,99.90
2022-10-17T16:46:10.866Z,99.90
2022-10-17T16:48:41.282Z,99.90
2022-10-17T16:51:08.410Z,99.90
2022-10-17T16:53:40.293Z,99.90
2022-10-17T16:56:08.240Z,99.90
2022-10-17T16:58:35.211Z,99.90
2022-10-17T17:01:03.936Z,99.90
2022-10-17T17:03:31.047Z,99.90
2022-10-17T17:05:57.802Z,99.90
2022-10-17T17:08:25.069Z,99.90
2022-10-17T17:10:53.564Z,99.90
2022-10-17T17:13:20.916Z,99.90
2022-10-17T17:15:47.785Z,99.90
2022-10-17T17:18:15.071Z,99.90
2022-10-17T17:20:41.997Z,99.90
2022-10-17T17:23:13.693Z,99.90
2022-10-17T17:25:45.493Z,99.90
2022-10-17T17:28:12.599Z,99.90
2022-10-17T17:30:39.306Z,99.90
2022-10-17T17:33:06.235Z,99.90
2022-10-17T17:35:33.172Z,99.90
2022-10-17T17:38:03.024Z,99.90
2022-10-17T17:40:29.995Z,99.90
2022-10-17T17:42:57.080Z,99.90
2022-10-17T17:45:23.910Z,99.90
2022-10-17T17:47:51.635Z,99.90
2022-10-17T17:50:18.832Z,99.90
2022-10-17T17:52:46.494Z,99.90
2022-10-17T17:55:13.502Z,99.90
2022-10-17T17:57:40.746Z,99.90
2022-10-17T18:00:07.967Z,99.90
2022-10-17T18:02:37.659Z,99.90
2022-10-17T18:05:06.991Z,99.90
2022-10-17T18:07:38.301Z,99.90
2022-10-17T18:10:07.952Z,99.90
2022-10-17T18:12:35.039Z,99.90
2022-10-17T18:15:02.298Z,99.90
2022-10-17T18:17:31.665Z,99.90
2022-10-17T18:19:58.517Z,99.90
2022-10-17T18:22:25.652Z,99.90
2022-10-17T18:24:52.953Z,99.90
2022-10-17T18:27:19.813Z,99.90
2022-10-17T18:29:47.188Z,99.90
2022-10-17T18:32:14.523Z,99.90
2022-10-17T18:34:41.858Z,99.90
2022-10-17T18:37:09.047Z,99.90
2022-10-17T18:39:36.497Z,99.90
2022-10-17T18:42:03.376Z,99.90
2022-10-17T18:44:30.679Z,99.90
2022-10-17T18:47:03.017Z,99.90
2022-10-17T18:49:31.840Z,99.90
2022-10-17T18:51:59.811Z,99.90
2022-10-17T18:54:26.843Z,99.90
2022-10-17T18:56:54.259Z,99.90
2022-10-17T18:59:21.550Z,99.90
2022-10-17T19:01:48.952Z,99.90
2022-10-17T19:04:16.932Z,99.90
2022-10-17T19:06:43.898Z,99.90
2022-10-17T19:09:12.152Z,99.90
2022-10-17T19:11:39.692Z,99.90
2022-10-17T19:14:13.700Z,99.90
2022-10-17T19:16:47.295Z,99.90
2022-10-17T19:19:16.536Z,99.90
2022-10-17T19:21:43.920Z,99.90
2022-10-17T19:24:15.292Z,99.90
2022-10-17T19:26:42.895Z,99.90
2022-10-17T19:29:11.045Z,99.90
2022-10-17T19:31:38.120Z,99.90
2022-10-17T19:34:05.589Z,99.90
2022-10-17T19:36:34.128Z,99.90
2022-10-17T19:39:03.191Z,99.90
2022-10-17T19:41:31.241Z,99.90
2022-10-17T19:43:59.719Z,99.90
2022-10-17T19:46:27.476Z,99.90
2022-10-17T19:48:55.184Z,99.90
2022-10-17T19:51:24.939Z,99.90
2022-10-17T19:53:53.044Z,99.90
2022-10-17T19:56:20.691Z,99.90
2022-10-17T19:58:48.205Z,99.90
2022-10-17T20:01:17.889Z,99.90
2022-10-17T20:03:48.276Z,99.90
2022-10-17T20:06:15.625Z,99.90
2022-10-17T20:08:42.743Z,99.90
2022-10-17T20:11:12.099Z,99.90
2022-10-17T20:13:39.213Z,99.90
2022-10-17T20:16:07.608Z,99.90
2022-10-17T20:18:35.435Z,99.90
2022-10-17T20:21:06.713Z,99.90
2022-10-17T20:23:33.461Z,99.90
2022-10-17T20:26:18.821Z,99.90
2022-10-17T20:28:48.227Z,99.90
2022-10-17T20:31:15.512Z,99.90
2022-10-17T20:33:42.608Z,99.90
2022-10-17T20:36:10.309Z,99.90
2022-10-17T20:38:37.287Z,99.90
2022-10-17T20:41:06.379Z,99.90
2022-10-17T20:43:33.820Z,99.90
2022-10-17T20:46:09.647Z,99.90
2022-10-17T20:48:42.878Z,99.90
2022-10-17T20:51:10.236Z,99.90
2022-10-17T20:53:37.923Z,99.90
2022-10-17T20:56:06.272Z,99.90
2022-10-17T20:58:33.019Z,99.90
2022-10-17T21:01:04.871Z,99.90
2022-10-17T21:03:34.216Z,99.90
2022-10-17T21:06:01.442Z,99.90
2022-10-17T21:08:28.209Z,99.90
2022-10-17T21:10:55.634Z,99.90
2022-10-17T21:13:22.651Z,99.90
2022-10-17T21:15:50.040Z,99.90
2022-10-17T21:18:17.420Z,99.90
2022-10-17T21:20:44.181Z,99.90
2022-10-17T21:23:11.312Z,99.90
2022-10-17T21:25:40.775Z,99.90
2022-10-17T21:28:07.652Z,99.90
2022-10-17T21:30:35.338Z,99.90
2022-10-17T21:33:02.246Z,99.90
2022-10-17T21:35:30.122Z,99.90
2022-10-17T21:37:57.314Z,99.90
2022-10-17T21:40:24.106Z,99.90
2022-10-17T21:42:50.913Z,99.90
2022-10-17T21:45:25.416Z,99.90
2022-10-17T21:48:12.196Z,99.90
2022-10-17T21:50:39.667Z,99.90
2022-10-17T21:53:06.515Z,99.90
2022-10-17T21:55:36.033Z,99.90
2022-10-17T21:58:03.223Z,99.90
2022-10-17T22:00:30.449Z,99.90
2022-10-17T22:02:57.523Z,99.90
2022-10-17T22:05:25.256Z,99.90
2022-10-17T22:07:53.647Z,99.90
2022-10-17T22:10:21.279Z,99.90
2022-10-17T22:12:48.645Z,99.90
2022-10-17T22:15:16.382Z,99.90
2022-10-17T22:17:43.107Z,99.90
2022-10-17T22:20:10.052Z,99.90
2022-10-17T22:22:36.917Z,99.90
2022-10-17T22:25:04.273Z,99.90
2022-10-17T22:27:32.406Z,99.90
2022-10-17T22:29:59.907Z,99.90
2022-10-17T22:32:27.207Z,99.90
2022-10-17T22:34:54.061Z,99.90
2022-10-17T22:37:20.967Z,99.90
2022-10-17T22:39:48.118Z,99.90
2022-10-17T22:42:15.345Z,99.90
2022-10-17T22:44:42.529Z,99.90
2022-10-17T22:47:09.657Z,99.90
2022-10-17T22:49:36.415Z,99.90
2022-10-17T22:52:03.669Z,99.90
2022-10-17T22:54:30.437Z,99.90
2022-10-17T22:56:57.505Z,99.90
2022-10-17T22:59:24.622Z,99.90
2022-10-17T23:01:51.786Z,99.90
2022-10-17T23:04:19.186Z,99.90
2022-10-17T23:06:46.379Z,99.90
2022-10-17T23:09:13.644Z,99.90
2022-10-17T23:11:40.416Z,99.90
2022-10-17T23:14:07.779Z,99.90
2022-10-17T23:16:34.553Z,99.90
2022-10-17T23:19:01.749Z,99.90
2022-10-17T23:21:28.565Z,99.90
2022-10-17T23:23:56.317Z,99.90
2022-10-17T23:26:23.161Z,99.90
2022-10-17T23:28:53.389Z,99.90
2022-10-17T23:31:21.978Z,99.90
2022-10-17T23:33:49.796Z,99.90
2022-10-17T23:36:18.223Z,99.90
2022-10-17T23:38:46.552Z,99.90
2022-10-17T23:41:13.796Z,99.90
2022-10-17T23:43:41.460Z,99.90
2022-10-17T23:46:08.209Z,99.90
2022-10-17T23:48:36.030Z,99.90
2022-10-17T23:51:03.343Z,99.90
2022-10-17T23:53:30.167Z,99.90
2022-10-17T23:55:57.944Z,99.90
2022-10-17T23:58:24.856Z,99.90
